sensor_id;sensor_type;location;lat;lon;timestamp;pressure;altitude;pressure_sealevel;temperature;humidity
55066;BME280;40964;42.114;24.220;2022-10-31T00:01:38;98125.13;;;16.08;52.68
55066;BME280;40964;42.114;24.220;2022-10-31T00:04:04;98126.41;;;16.22;52.29
55066;BME280;40964;42.114;24.220;2022-10-31T00:06:30;98130.31;;;16.36;51.26
55066;BME280;40964;42.114;24.220;2022-10-31T00:08:59;98132.47;;;16.39;51.45
55066;BME280;40964;42.114;24.220;2022-10-31T00:11:26;98130.91;;;16.43;51.22
55066;BME280;40964;42.114;24.220;2022-10-31T00:13:51;98128.25;;;16.43;51.96
55066;BME280;40964;42.114;24.220;2022-10-31T00:16:22;98129.91;;;16.44;51.96
55066;BME280;40964;42.114;24.220;2022-10-31T00:18:52;98128.78;;;16.40;51.53
55066;BME280;40964;42.114;24.220;2022-10-31T00:21:18;98118.22;;;16.45;51.14
55066;BME280;40964;42.114;24.220;2022-10-31T00:23:44;98122.78;;;16.50;51.38
55066;BME280;40964;42.114;24.220;2022-10-31T00:26:10;98124.09;;;16.48;51.81
55066;BME280;40964;42.114;24.220;2022-10-31T00:28:35;98127.25;;;16.44;51.54
55066;BME280;40964;42.114;24.220;2022-10-31T00:31:03;98130.03;;;16.55;52.02
55066;BME280;40964;42.114;24.220;2022-10-31T00:33:29;98129.53;;;16.58;52.03
55066;BME280;40964;42.114;24.220;2022-10-31T00:35:55;98134.34;;;16.61;51.88
55066;BME280;40964;42.114;24.220;2022-10-31T00:38:21;98128.47;;;16.59;51.74
55066;BME280;40964;42.114;24.220;2022-10-31T00:40:46;98135.94;;;16.62;51.45
55066;BME280;40964;42.114;24.220;2022-10-31T00:43:11;98135.53;;;16.70;51.23
55066;BME280;40964;42.114;24.220;2022-10-31T00:45:37;98126.84;;;16.74;51.17
55066;BME280;40964;42.114;24.220;2022-10-31T00:48:03;98130.84;;;16.77;51.89
55066;BME280;40964;42.114;24.220;2022-10-31T00:50:28;98122.06;;;16.77;51.04
55066;BME280;40964;42.114;24.220;2022-10-31T00:52:54;98124.31;;;16.85;50.55
55066;BME280;40964;42.114;24.220;2022-10-31T00:55:19;98118.47;;;16.88;50.94
55066;BME280;40964;42.114;24.220;2022-10-31T00:57:48;98116.50;;;17.00;48.94
55066;BME280;40964;42.114;24.220;2022-10-31T01:00:14;98111.84;;;17.12;48.91
55066;BME280;40964;42.114;24.220;2022-10-31T01:02:39;98113.25;;;17.20;49.35
55066;BME280;40964;42.114;24.220;2022-10-31T01:05:05;98117.50;;;17.21;50.48
55066;BME280;40964;42.114;24.220;2022-10-31T01:07:30;98108.91;;;17.09;50.78
55066;BME280;40964;42.114;24.220;2022-10-31T01:09:56;98113.19;;;17.15;49.32
55066;BME280;40964;42.114;24.220;2022-10-31T01:12:21;98110.88;;;17.23;49.80
55066;BME280;40964;42.114;24.220;2022-10-31T01:14:47;98111.47;;;17.30;48.94
55066;BME280;40964;42.114;24.220;2022-10-31T01:17:13;98114.22;;;17.41;48.50
55066;BME280;40964;42.114;24.220;2022-10-31T01:19:38;98112.97;;;17.48;48.36
55066;BME280;40964;42.114;24.220;2022-10-31T01:22:04;98121.81;;;17.54;47.81
55066;BME280;40964;42.114;24.220;2022-10-31T01:24:30;98115.44;;;17.55;48.40
55066;BME280;40964;42.114;24.220;2022-10-31T01:26:55;98113.84;;;17.54;48.69
55066;BME280;40964;42.114;24.220;2022-10-31T01:29:21;98119.94;;;17.54;48.90
55066;BME280;40964;42.114;24.220;2022-10-31T01:31:46;98107.38;;;17.45;49.25
55066;BME280;40964;42.114;24.220;2022-10-31T01:34:14;98110.56;;;17.47;49.41
55066;BME280;40964;42.114;24.220;2022-10-31T01:36:40;98113.75;;;17.44;49.04
55066;BME280;40964;42.114;24.220;2022-10-31T01:39:08;98115.84;;;17.42;49.42
55066;BME280;40964;42.114;24.220;2022-10-31T01:41:36;98116.81;;;17.30;49.99
55066;BME280;40964;42.114;24.220;2022-10-31T01:47:01;98111.69;;;17.24;50.14
55066;BME280;40964;42.114;24.220;2022-10-31T01:52:08;98113.28;;;17.25;49.65
55066;BME280;40964;42.114;24.220;2022-10-31T01:54:48;98125.84;;;17.29;50.65
55066;BME280;40964;42.114;24.220;2022-10-31T01:57:17;98118.56;;;17.20;50.99
55066;BME280;40964;42.114;24.220;2022-10-31T01:59:47;98122.75;;;17.16;50.51
55066;BME280;40964;42.114;24.220;2022-10-31T02:02:15;98120.63;;;17.13;50.53
55066;BME280;40964;42.114;24.220;2022-10-31T02:04:42;98115.00;;;17.09;50.42
55066;BME280;40964;42.114;24.220;2022-10-31T02:07:12;98119.56;;;17.14;50.45
55066;BME280;40964;42.114;24.220;2022-10-31T02:09:39;98119.81;;;17.12;50.80
55066;BME280;40964;42.114;24.220;2022-10-31T02:12:06;98103.00;;;17.07;49.78
55066;BME280;40964;42.114;24.220;2022-10-31T02:14:35;98117.75;;;17.19;49.69
55066;BME280;40964;42.114;24.220;2022-10-31T02:17:01;98115.53;;;17.38;48.80
55066;BME280;40964;42.114;24.220;2022-10-31T02:33:25;98111.91;;;17.76;48.00
55066;BME280;40964;42.114;24.220;2022-10-31T02:36:10;98116.75;;;17.84;47.39
55066;BME280;40964;42.114;24.220;2022-10-31T02:41:05;98109.25;;;18.19;46.65
55066;BME280;40964;42.114;24.220;2022-10-31T02:43:42;98106.44;;;18.35;46.35
55066;BME280;40964;42.114;24.220;2022-10-31T02:46:16;98112.25;;;18.32;46.08
55066;BME280;40964;42.114;24.220;2022-10-31T02:48:46;98112.81;;;18.34;46.16
55066;BME280;40964;42.114;24.220;2022-10-31T02:51:15;98113.03;;;18.28;46.34
55066;BME280;40964;42.114;24.220;2022-10-31T02:53:41;98118.63;;;18.26;46.18
55066;BME280;40964;42.114;24.220;2022-10-31T02:56:15;98124.16;;;18.20;46.61
55066;BME280;40964;42.114;24.220;2022-10-31T02:58:45;98124.16;;;18.20;46.45
55066;BME280;40964;42.114;24.220;2022-10-31T03:01:33;98125.97;;;18.56;45.84
55066;BME280;40964;42.114;24.220;2022-10-31T03:09:25;98125.03;;;18.83;45.14
55066;BME280;40964;42.114;24.220;2022-10-31T03:14:34;98130.66;;;18.91;45.01
55066;BME280;40964;42.114;24.220;2022-10-31T03:17:05;98136.84;;;19.07;44.48
55066;BME280;40964;42.114;24.220;2022-10-31T03:19:41;98136.06;;;19.17;44.16
55066;BME280;40964;42.114;24.220;2022-10-31T03:22:22;98136.59;;;19.19;44.10
55066;BME280;40964;42.114;24.220;2022-10-31T03:24:50;98143.53;;;19.30;44.13
55066;BME280;40964;42.114;24.220;2022-10-31T03:27:22;98139.03;;;19.36;43.92
55066;BME280;40964;42.114;24.220;2022-10-31T03:29:50;98136.63;;;19.39;44.10
55066;BME280;40964;42.114;24.220;2022-10-31T03:32:34;98144.13;;;19.42;44.08
55066;BME280;40964;42.114;24.220;2022-10-31T03:35:03;98142.53;;;19.41;43.97
55066;BME280;40964;42.114;24.220;2022-10-31T03:37:32;98145.72;;;19.43;44.00
55066;BME280;40964;42.114;24.220;2022-10-31T03:40:00;98140.63;;;19.37;44.14
55066;BME280;40964;42.114;24.220;2022-10-31T03:42:29;98151.03;;;19.48;44.07
55066;BME280;40964;42.114;24.220;2022-10-31T03:44:57;98154.53;;;19.44;44.08
55066;BME280;40964;42.114;24.220;2022-10-31T03:47:25;98157.19;;;19.49;43.99
55066;BME280;40964;42.114;24.220;2022-10-31T03:49:51;98163.06;;;19.51;43.97
55066;BME280;40964;42.114;24.220;2022-10-31T03:52:43;98163.31;;;19.49;44.53
55066;BME280;40964;42.114;24.220;2022-10-31T03:57:43;98158.28;;;19.53;44.29
55066;BME280;40964;42.114;24.220;2022-10-31T04:00:13;98154.81;;;19.58;43.96
55066;BME280;40964;42.114;24.220;2022-10-31T04:02:51;98163.13;;;19.61;44.13
55066;BME280;40964;42.114;24.220;2022-10-31T04:05:20;98155.63;;;19.58;44.43
55066;BME280;40964;42.114;24.220;2022-10-31T04:07:47;98158.28;;;19.53;44.56
55066;BME280;40964;42.114;24.220;2022-10-31T04:10:16;98157.75;;;19.56;44.71
55066;BME280;40964;42.114;24.220;2022-10-31T04:12:45;98158.03;;;19.60;44.99
55066;BME280;40964;42.114;24.220;2022-10-31T04:15:14;98161.72;;;19.53;44.91
55066;BME280;40964;42.114;24.220;2022-10-31T04:17:41;98162.53;;;19.54;45.10
55066;BME280;40964;42.114;24.220;2022-10-31T04:20:09;98171.09;;;19.56;45.10
55066;BME280;40964;42.114;24.220;2022-10-31T04:22:35;98161.22;;;19.51;45.21
55066;BME280;40964;42.114;24.220;2022-10-31T04:25:00;98172.69;;;19.52;45.20
55066;BME280;40964;42.114;24.220;2022-10-31T04:27:26;98174.28;;;19.53;45.11
55066;BME280;40964;42.114;24.220;2022-10-31T04:29:51;98173.22;;;19.54;44.88
55066;BME280;40964;42.114;24.220;2022-10-31T04:32:17;98172.94;;;19.55;45.40
55066;BME280;40964;42.114;24.220;2022-10-31T04:34:43;98176.97;;;19.58;45.37
55066;BME280;40964;42.114;24.220;2022-10-31T04:37:08;98189.78;;;19.56;45.29
55066;BME280;40964;42.114;24.220;2022-10-31T04:39:33;98184.44;;;19.56;45.23
55066;BME280;40964;42.114;24.220;2022-10-31T04:41:59;98192.16;;;19.58;45.55
55066;BME280;40964;42.114;24.220;2022-10-31T04:44:24;98189.75;;;19.51;45.28
55066;BME280;40964;42.114;24.220;2022-10-31T04:46:50;98191.63;;;19.55;45.44
55066;BME280;40964;42.114;24.220;2022-10-31T04:49:15;98197.50;;;19.58;45.22
55066;BME280;40964;42.114;24.220;2022-10-31T04:51:40;98197.50;;;19.58;45.21
55066;BME280;40964;42.114;24.220;2022-10-31T04:54:06;98206.31;;;19.58;45.15
55066;BME280;40964;42.114;24.220;2022-10-31T04:56:31;98204.44;;;19.59;45.17
55066;BME280;40964;42.114;24.220;2022-10-31T04:58:57;98206.28;;;19.53;45.32
55066;BME280;40964;42.114;24.220;2022-10-31T05:01:22;98207.88;;;19.49;45.64
55066;BME280;40964;42.114;24.220;2022-10-31T05:03:48;98215.59;;;19.45;45.85
55066;BME280;40964;42.114;24.220;2022-10-31T05:06:13;98218.50;;;19.39;45.94
55066;BME280;40964;42.114;24.220;2022-10-31T05:08:39;98211.88;;;19.41;45.95
55066;BME280;40964;42.114;24.220;2022-10-31T05:11:04;98213.22;;;19.44;45.84
55066;BME280;40964;42.114;24.220;2022-10-31T05:13:30;98224.91;;;19.38;46.08
55066;BME280;40964;42.114;24.220;2022-10-31T05:15:56;98223.88;;;19.44;45.69
55066;BME280;40964;42.114;24.220;2022-10-31T05:18:21;98235.88;;;19.46;45.86
55066;BME280;40964;42.114;24.220;2022-10-31T05:20:47;98245.25;;;19.54;46.03
55066;BME280;40964;42.114;24.220;2022-10-31T05:23:13;98242.06;;;19.57;45.79
55066;BME280;40964;42.114;24.220;2022-10-31T05:25:39;98231.97;;;19.59;45.66
55066;BME280;40964;42.114;24.220;2022-10-31T05:28:24;98235.13;;;19.56;46.02
55066;BME280;40964;42.114;24.220;2022-10-31T05:30:50;98225.75;;;19.48;46.05
55066;BME280;40964;42.114;24.220;2022-10-31T05:33:15;98250.06;;;19.57;46.20
55066;BME280;40964;42.114;24.220;2022-10-31T05:35:41;98244.47;;;19.59;45.95
55066;BME280;40964;42.114;24.220;2022-10-31T05:38:06;98252.97;;;19.55;45.94
55066;BME280;40964;42.114;24.220;2022-10-31T05:40:32;98255.16;;;19.59;46.22
55066;BME280;40964;42.114;24.220;2022-10-31T05:42:57;98248.97;;;19.53;45.95
55066;BME280;40964;42.114;24.220;2022-10-31T05:45:24;98256.19;;;19.52;46.18
55066;BME280;40964;42.114;24.220;2022-10-31T05:48:00;98257.50;;;19.45;46.53
55066;BME280;40964;42.114;24.220;2022-10-31T05:50:28;98263.09;;;19.48;46.35
55066;BME280;40964;42.114;24.220;2022-10-31T05:53:02;98261.75;;;19.46;46.45
55066;BME280;40964;42.114;24.220;2022-10-31T05:55:28;98266.59;;;19.54;46.04
55066;BME280;40964;42.114;24.220;2022-10-31T05:57:55;98270.13;;;19.60;46.25
55066;BME280;40964;42.114;24.220;2022-10-31T06:00:21;98274.09;;;19.67;46.24
55066;BME280;40964;42.114;24.220;2022-10-31T06:02:47;98269.06;;;19.76;46.29
55066;BME280;40964;42.114;24.220;2022-10-31T06:05:12;98269.63;;;19.83;46.06
55066;BME280;40964;42.114;24.220;2022-10-31T06:07:38;98275.50;;;19.90;45.72
55066;BME280;40964;42.114;24.220;2022-10-31T06:10:05;98280.88;;;20.05;45.23
55066;BME280;40964;42.114;24.220;2022-10-31T06:12:33;98278.47;;;20.14;45.11
55066;BME280;40964;42.114;24.220;2022-10-31T06:15:07;98276.88;;;20.23;45.04
55066;BME280;40964;42.114;24.220;2022-10-31T06:17:35;98278.47;;;20.34;45.23
55066;BME280;40964;42.114;24.220;2022-10-31T06:20:02;98283.03;;;20.44;44.88
55066;BME280;40964;42.114;24.220;2022-10-31T06:22:37;98283.56;;;20.51;44.38
55066;BME280;40964;42.114;24.220;2022-10-31T06:25:03;98284.91;;;20.54;44.63
55066;BME280;40964;42.114;24.220;2022-10-31T06:27:28;98285.41;;;20.66;44.63
55066;BME280;40964;42.114;24.220;2022-10-31T06:29:54;98288.88;;;20.72;44.31
55066;BME280;40964;42.114;24.220;2022-10-31T06:32:19;98289.94;;;20.81;44.04
55066;BME280;40964;42.114;24.220;2022-10-31T06:34:45;98293.41;;;20.91;43.88
55066;BME280;40964;42.114;24.220;2022-10-31T06:37:13;98301.38;;;21.02;44.01
55066;BME280;40964;42.114;24.220;2022-10-31T06:39:39;98300.84;;;21.10;43.47
55066;BME280;40964;42.114;24.220;2022-10-31T06:42:05;98297.63;;;21.13;43.28
55066;BME280;40964;42.114;24.220;2022-10-31T06:44:30;98305.66;;;21.08;43.42
55066;BME280;40964;42.114;24.220;2022-10-31T06:46:56;98294.44;;;21.06;43.29
55066;BME280;40964;42.114;24.220;2022-10-31T06:49:21;98298.97;;;21.10;43.57
55066;BME280;40964;42.114;24.220;2022-10-31T06:51:48;98299.75;;;21.16;43.01
55066;BME280;40964;42.114;24.220;2022-10-31T06:54:14;98307.25;;;21.14;42.68
55066;BME280;40964;42.114;24.220;2022-10-31T06:56:39;98308.06;;;21.09;43.40
55066;BME280;40964;42.114;24.220;2022-10-31T06:59:05;98312.88;;;21.02;43.17
55066;BME280;40964;42.114;24.220;2022-10-31T07:01:30;98309.16;;;20.98;43.39
55066;BME280;40964;42.114;24.220;2022-10-31T07:03:55;98309.41;;;21.07;43.32
55066;BME280;40964;42.114;24.220;2022-10-31T07:06:21;98304.28;;;21.20;42.89
55066;BME280;40964;42.114;24.220;2022-10-31T07:08:46;98312.56;;;21.39;43.26
55066;BME280;40964;42.114;24.220;2022-10-31T07:11:12;98303.13;;;21.47;42.59
55066;BME280;40964;42.114;24.220;2022-10-31T07:13:37;98303.13;;;21.47;42.36
55066;BME280;40964;42.114;24.220;2022-10-31T07:16:04;98302.66;;;21.40;42.98
55066;BME280;40964;42.114;24.220;2022-10-31T07:18:32;98302.09;;;21.38;42.47
55066;BME280;40964;42.114;24.220;2022-10-31T07:21:00;98302.34;;;21.46;42.90
55066;BME280;40964;42.114;24.220;2022-10-31T07:23:26;98298.00;;;21.61;42.25
55066;BME280;40964;42.114;24.220;2022-10-31T07:25:55;98299.31;;;21.68;42.31
55066;BME280;40964;42.114;24.220;2022-10-31T07:28:22;98301.41;;;21.76;42.28
55066;BME280;40964;42.114;24.220;2022-10-31T07:30:51;98292.00;;;21.84;41.14
55066;BME280;40964;42.114;24.220;2022-10-31T07:33:17;98292.72;;;21.95;41.59
55066;BME280;40964;42.114;24.220;2022-10-31T07:35:42;98300.41;;;22.06;40.77
55066;BME280;40964;42.114;24.220;2022-10-31T07:38:10;98275.00;;;21.99;41.30
55066;BME280;40964;42.114;24.220;2022-10-31T07:40:35;98291.78;;;22.20;41.27
55066;BME280;40964;42.114;24.220;2022-10-31T07:43:01;98283.97;;;22.23;40.87
55066;BME280;40964;42.114;24.220;2022-10-31T07:45:27;98292.78;;;22.29;40.44
55066;BME280;40964;42.114;24.220;2022-10-31T07:47:53;98300.97;;;22.03;41.26
55066;BME280;40964;42.114;24.220;2022-10-31T07:50:23;98303.75;;;21.88;41.26
55066;BME280;40964;42.114;24.220;2022-10-31T07:53:02;98304.13;;;21.66;41.58
55066;BME280;40964;42.114;24.220;2022-10-31T07:55:28;98299.59;;;21.62;42.00
55066;BME280;40964;42.114;24.220;2022-10-31T07:58:02;98302.31;;;21.51;42.73
55066;BME280;40964;42.114;24.220;2022-10-31T08:00:28;98299.41;;;21.48;41.84
55066;BME280;40964;42.114;24.220;2022-10-31T08:03:08;98306.84;;;21.56;42.79
55066;BME280;40964;42.114;24.220;2022-10-31T08:05:35;98294.22;;;21.67;42.39
55066;BME280;40964;42.114;24.220;2022-10-31T08:08:01;98297.66;;;21.77;41.88
55066;BME280;40964;42.114;24.220;2022-10-31T08:10:27;98294.38;;;21.86;42.37
55066;BME280;40964;42.114;24.220;2022-10-31T08:12:57;98295.72;;;21.83;41.45
55066;BME280;40964;42.114;24.220;2022-10-31T08:15:24;98309.81;;;21.99;41.62
55066;BME280;40964;42.114;24.220;2022-10-31T08:17:49;98298.25;;;22.14;41.50
55066;BME280;40964;42.114;24.220;2022-10-31T08:20:15;98295.41;;;22.34;41.12
55066;BME280;40964;42.114;24.220;2022-10-31T08:22:40;98293.50;;;22.40;40.21
55066;BME280;40964;42.114;24.220;2022-10-31T08:25:06;98303.94;;;22.41;40.10
55066;BME280;40964;42.114;24.220;2022-10-31T08:27:32;98296.47;;;22.38;40.55
55066;BME280;40964;42.114;24.220;2022-10-31T08:29:57;98295.63;;;22.37;40.29
55066;BME280;40964;42.114;24.220;2022-10-31T08:32:24;98295.09;;;22.41;40.53
55066;BME280;40964;42.114;24.220;2022-10-31T08:34:49;98282.59;;;22.31;40.72
55066;BME280;40964;42.114;24.220;2022-10-31T08:37:14;98308.03;;;22.28;40.85
55066;BME280;40964;42.114;24.220;2022-10-31T08:39:48;98289.16;;;22.09;40.79
55066;BME280;40964;42.114;24.220;2022-10-31T08:42:13;98302.22;;;22.21;40.63
55066;BME280;40964;42.114;24.220;2022-10-31T08:44:39;98299.75;;;22.30;40.11
55066;BME280;40964;42.114;24.220;2022-10-31T08:47:05;98296.47;;;22.38;40.85
55066;BME280;40964;42.114;24.220;2022-10-31T08:49:30;98296.28;;;22.58;40.58
55066;BME280;40964;42.114;24.220;2022-10-31T08:51:56;98297.69;;;22.80;39.36
55066;BME280;40964;42.114;24.220;2022-10-31T08:54:22;98303.53;;;22.87;39.94
55066;BME280;40964;42.114;24.220;2022-10-31T08:56:47;98300.75;;;22.97;38.96
55066;BME280;40964;42.114;24.220;2022-10-31T08:59:13;98300.09;;;23.10;39.62
55066;BME280;40964;42.114;24.220;2022-10-31T09:01:38;98288.94;;;23.22;38.69
55066;BME280;40964;42.114;24.220;2022-10-31T09:04:04;98285.84;;;23.34;39.37
55066;BME280;40964;42.114;24.220;2022-10-31T09:06:29;98289.28;;;23.39;38.24
55066;BME280;40964;42.114;24.220;2022-10-31T09:08:55;98295.19;;;23.36;37.81
55066;BME280;40964;42.114;24.220;2022-10-31T09:11:20;98301.31;;;23.42;38.52
55066;BME280;40964;42.114;24.220;2022-10-31T09:13:46;98293.56;;;23.64;38.06
55066;BME280;40964;42.114;24.220;2022-10-31T09:16:11;98294.22;;;23.75;37.20
55066;BME280;40964;42.114;24.220;2022-10-31T09:18:37;98300.44;;;23.70;37.51
55066;BME280;40964;42.114;24.220;2022-10-31T09:21:05;98294.06;;;23.85;37.41
55066;BME280;40964;42.114;24.220;2022-10-31T09:23:30;98295.97;;;23.85;36.67
55066;BME280;40964;42.114;24.220;2022-10-31T09:25:59;98293.25;;;24.03;36.82
55066;BME280;40964;42.114;24.220;2022-10-31T09:28:25;98292.81;;;23.96;37.38
55066;BME280;40964;42.114;24.220;2022-10-31T09:30:52;98294.50;;;24.11;37.56
55066;BME280;40964;42.114;24.220;2022-10-31T09:33:19;98290.28;;;24.05;36.60
55066;BME280;40964;42.114;24.220;2022-10-31T09:35:44;98295.59;;;24.10;36.39
55066;BME280;40964;42.114;24.220;2022-10-31T09:38:12;98295.63;;;24.24;36.86
55066;BME280;40964;42.114;24.220;2022-10-31T09:46:29;98292.16;;;24.23;36.38
55066;BME280;40964;42.114;24.220;2022-10-31T09:51:57;98286.72;;;24.61;36.48
55066;BME280;40964;42.114;24.220;2022-10-31T09:54:40;98285.47;;;24.72;36.54
55066;BME280;40964;42.114;24.220;2022-10-31T09:57:13;98279.41;;;24.80;35.50
55066;BME280;40964;42.114;24.220;2022-10-31T09:59:40;98283.97;;;24.94;35.66
55066;BME280;40964;42.114;24.220;2022-10-31T10:04:54;98288.53;;;24.66;35.29
55066;BME280;40964;42.114;24.220;2022-10-31T10:10:35;98278.88;;;24.65;35.35
55066;BME280;40964;42.114;24.220;2022-10-31T10:19:02;98281.81;;;24.49;35.84
55066;BME280;40964;42.114;24.220;2022-10-31T10:21:48;98282.06;;;24.15;36.48
55066;BME280;40964;42.114;24.220;2022-10-31T10:29:52;98273.03;;;23.73;37.17
55066;BME280;40964;42.114;24.220;2022-10-31T10:32:24;98260.28;;;23.98;37.80
55066;BME280;40964;42.114;24.220;2022-10-31T10:34:58;98264.78;;;24.21;36.28
55066;BME280;40964;42.114;24.220;2022-10-31T10:37:32;98259.09;;;24.42;36.50
55066;BME280;40964;42.114;24.220;2022-10-31T10:40:16;98254.06;;;24.54;35.86
55066;BME280;40964;42.114;24.220;2022-10-31T10:42:46;98253.53;;;24.52;35.93
55066;BME280;40964;42.114;24.220;2022-10-31T10:45:34;98242.06;;;24.46;35.71
55066;BME280;40964;42.114;24.220;2022-10-31T10:49:18;98260.34;;;24.63;36.44
55066;BME280;40964;42.114;24.220;2022-10-31T10:51:58;98263.56;;;24.92;36.04
55066;BME280;40964;42.114;24.220;2022-10-31T10:59:37;98265.19;;;24.47;35.56
55066;BME280;40964;42.114;24.220;2022-10-31T11:02:08;98265.47;;;24.46;36.14
55066;BME280;40964;42.114;24.220;2022-10-31T11:04:40;98265.38;;;24.51;35.74
55066;BME280;40964;42.114;24.220;2022-10-31T11:07:09;98264.16;;;24.43;36.23
55066;BME280;40964;42.114;24.220;2022-10-31T11:09:36;98249.25;;;24.51;36.28
55066;BME280;40964;42.114;24.220;2022-10-31T11:12:19;98253.06;;;24.63;36.20
55066;BME280;40964;42.114;24.220;2022-10-31T11:14:59;98253.94;;;24.59;36.74
55066;BME280;40964;42.114;24.220;2022-10-31T11:17:29;98250.75;;;24.71;35.37
55066;BME280;40964;42.114;24.220;2022-10-31T11:22:30;98242.50;;;24.67;36.75
55066;BME280;40964;42.114;24.220;2022-10-31T11:24:56;98241.41;;;24.68;35.67
55066;BME280;40964;42.114;24.220;2022-10-31T11:27:24;98228.81;;;24.50;35.29
55066;BME280;40964;42.114;24.220;2022-10-31T11:29:50;98242.28;;;24.50;35.46
55066;BME280;40964;42.114;24.220;2022-10-31T11:32:22;98230.22;;;24.47;35.96
55066;BME280;40964;42.114;24.220;2022-10-31T11:34:52;98240.13;;;24.66;35.80
55066;BME280;40964;42.114;24.220;2022-10-31T11:37:22;98233.72;;;24.61;35.69
55066;BME280;40964;42.114;24.220;2022-10-31T11:39:57;98227.94;;;24.68;35.46
55066;BME280;40964;42.114;24.220;2022-10-31T11:42:28;98227.06;;;24.86;36.03
55066;BME280;40964;42.114;24.220;2022-10-31T11:44:55;98217.41;;;24.85;35.08
55066;BME280;40964;42.114;24.220;2022-10-31T11:47:29;98226.28;;;24.86;35.39
55066;BME280;40964;42.114;24.220;2022-10-31T11:50:02;98202.38;;;24.84;36.08
55066;BME280;40964;42.114;24.220;2022-10-31T11:52:33;98224.38;;;25.00;35.46
55066;BME280;40964;42.114;24.220;2022-10-31T11:57:50;98221.31;;;25.21;35.45
55066;BME280;40964;42.114;24.220;2022-10-31T12:00:28;98220.50;;;25.20;34.28
55066;BME280;40964;42.114;24.220;2022-10-31T12:05:56;98221.91;;;25.04;35.11
55066;BME280;40964;42.114;24.220;2022-10-31T12:08:24;98218.22;;;24.72;35.14
55066;BME280;40964;42.114;24.220;2022-10-31T12:16:48;98215.59;;;24.95;35.30
55066;BME280;40964;42.114;24.220;2022-10-31T12:24:50;98216.00;;;25.15;34.69
55066;BME280;40964;42.114;24.220;2022-10-31T12:41:21;98214.00;;;25.35;34.32
55066;BME280;40964;42.114;24.220;2022-10-31T12:58:28;98213.53;;;24.91;34.83
55066;BME280;40964;42.114;24.220;2022-10-31T13:01:07;98210.53;;;24.93;34.40
55066;BME280;40964;42.114;24.220;2022-10-31T13:03:45;98214.16;;;25.02;35.30
55066;BME280;40964;42.114;24.220;2022-10-31T13:06:19;98215.22;;;25.01;34.58
55066;BME280;40964;42.114;24.220;2022-10-31T13:08:51;98220.31;;;25.03;34.36
55066;BME280;40964;42.114;24.220;2022-10-31T13:11:23;98212.50;;;24.87;35.37
55066;BME280;40964;42.114;24.220;2022-10-31T13:16:30;98211.16;;;25.04;34.57
55066;BME280;40964;42.114;24.220;2022-10-31T13:19:10;98219.59;;;24.97;34.75
55066;BME280;40964;42.114;24.220;2022-10-31T13:21:58;98212.50;;;24.87;34.61
55066;BME280;40964;42.114;24.220;2022-10-31T13:24:34;98213.22;;;24.66;34.75
55066;BME280;40964;42.114;24.220;2022-10-31T13:27:09;98209.34;;;24.72;35.36
55066;BME280;40964;42.114;24.220;2022-10-31T13:29:42;98210.50;;;24.79;35.05
55066;BME280;40964;42.114;24.220;2022-10-31T13:32:10;98208.63;;;24.94;35.13
55066;BME280;40964;42.114;24.220;2022-10-31T13:34:50;98206.16;;;24.83;34.68
55066;BME280;40964;42.114;24.220;2022-10-31T13:37:41;98202.97;;;24.81;34.75
55066;BME280;40964;42.114;24.220;2022-10-31T13:43:16;98200.28;;;24.81;34.80
55066;BME280;40964;42.114;24.220;2022-10-31T13:45:49;98197.88;;;24.80;34.63
55066;BME280;40964;42.114;24.220;2022-10-31T13:50:42;98192.09;;;24.86;34.06
55066;BME280;40964;42.114;24.220;2022-10-31T13:55:42;98191.81;;;24.74;33.92
55066;BME280;40964;42.114;24.220;2022-10-31T13:58:28;98202.66;;;24.69;34.72
55066;BME280;40964;42.114;24.220;2022-10-31T14:03:36;98196.28;;;24.65;34.56
55066;BME280;40964;42.114;24.220;2022-10-31T14:06:03;98200.06;;;24.64;34.81
55066;BME280;40964;42.114;24.220;2022-10-31T14:08:33;98200.94;;;24.59;35.02
55066;BME280;40964;42.114;24.220;2022-10-31T14:10:59;98195.75;;;24.49;34.11
55066;BME280;40964;42.114;24.220;2022-10-31T14:16:06;98198.50;;;24.30;34.47
55066;BME280;40964;42.114;24.220;2022-10-31T14:18:40;98200.88;;;24.18;35.14
55066;BME280;40964;42.114;24.220;2022-10-31T14:23:49;98200.22;;;24.07;35.85
55066;BME280;40964;42.114;24.220;2022-10-31T14:28:52;98208.06;;;24.04;36.16
55066;BME280;40964;42.114;24.220;2022-10-31T14:33:53;98205.56;;;23.94;36.61
55066;BME280;40964;42.114;24.220;2022-10-31T14:36:28;98205.22;;;23.82;36.58
55066;BME280;40964;42.114;24.220;2022-10-31T14:39:18;98206.75;;;23.69;36.80
55066;BME280;40964;42.114;24.220;2022-10-31T14:48:11;98210.63;;;23.58;37.57
55066;BME280;40964;42.114;24.220;2022-10-31T14:53:39;98210.19;;;23.32;38.61
55066;BME280;40964;42.114;24.220;2022-10-31T14:56:10;98204.84;;;23.08;39.21
55066;BME280;40964;42.114;24.220;2022-10-31T14:58:46;98213.16;;;22.87;39.95
55066;BME280;40964;42.114;24.220;2022-10-31T15:01:32;98207.91;;;22.72;40.16
55066;BME280;40964;42.114;24.220;2022-10-31T15:04:15;98213.69;;;22.60;40.48
55066;BME280;40964;42.114;24.220;2022-10-31T15:06:44;98201.28;;;22.41;40.40
55066;BME280;40964;42.114;24.220;2022-10-31T15:09:32;98206.47;;;22.32;40.64
55066;BME280;40964;42.114;24.220;2022-10-31T15:11:59;98210.06;;;22.17;40.84
55066;BME280;40964;42.114;24.220;2022-10-31T15:14:31;98215.25;;;22.03;40.90
55066;BME280;40964;42.114;24.220;2022-10-31T15:16:58;98216.94;;;21.94;41.00
55066;BME280;40964;42.114;24.220;2022-10-31T15:19:27;98219.75;;;21.74;41.17
55066;BME280;40964;42.114;24.220;2022-10-31T15:21:55;98219.00;;;21.63;41.68
55066;BME280;40964;42.114;24.220;2022-10-31T15:24:23;98223.91;;;21.51;41.50
55066;BME280;40964;42.114;24.220;2022-10-31T15:26:54;98216.75;;;21.36;41.95